Terminal Aerodrome Forecast
Issued by NWS

Home | Current Version | Previous Version | Text Only | Print | Product List | Glossary On
Versions: 1 2 3 4 5 6 7 8 9 10 11 12 13 14 15 16 17 18 19 20 21 22 23 24 25 26 27 28 29 30 31 32 33 34 35 36
776
FTUS41 KBOX 221734
TAFHYA
TAF
KHYA 221734Z 2218/2318 06011G19KT P6SM VCSH OVC060
     FM222000 03009KT P6SM -RAPL OVC060
     FM222200 04009KT 6SM -RASNPL OVC060
     FM230000 04008KT 4SM BR VCSH OVC015
     FM230200 04009KT P6SM OVC030
     FM230700 04008KT P6SM BKN060=

USA.gov is the U.S. government's official web portal to all federal, state and local government web resources and services.